Time;durP1;ratioP1;P1;durP2;ratioP2;P2;SDS_P1;SDS_P2;PMS_P1;PMS_P2;Temp;Humidity;BMP_temperature;BMP_pressure;BME280_temperature;BME280_humidity;BME280_pressure;Samples;Min_cycle;Max_cycle;Signal;HPM_P1;HPM_P2
2023/01/04 00:01:40;;;;;;;;;2.00;2.00;;;;;;;;5079632;27;45462;-69
2023/01/04 00:04:05;;;;;;;;;3.75;1.50;;;;;;;;5079774;28;45357;-69
2023/01/04 00:06:30;;;;;;;;;1.50;1.50;;;;;;;;5079726;27;45553;-69
2023/01/04 00:08:56;;;;;;;;;5.00;5.00;;;;;;;;5066514;27;45680;-69
2023/01/04 00:11:22;;;;;;;;;2.75;2.00;;;;;;;;5078793;28;45405;-69
2023/01/04 00:13:48;;;;;;;;;2.00;2.00;;;;;;;;5079249;27;45437;-70
2023/01/04 00:16:15;;;;;;;;;3.75;2.00;;;;;;;;5076755;27;45447;-70
2023/01/04 00:18:41;;;;;;;;;2.50;2.00;;;;;;;;5079361;28;45443;-70
2023/01/04 00:21:10;;;;;;;;;2.00;1.00;;;;;;;;5076115;27;45224;-69
2023/01/04 00:23:36;;;;;;;;;1.00;1.00;;;;;;;;5079182;28;46437;-70
2023/01/04 00:26:05;;;;;;;;;1.00;1.00;;;;;;;;5079307;28;45420;-70
2023/01/04 00:28:30;;;;;;;;;1.75;1.75;;;;;;;;5079692;27;45470;-69
2023/01/04 00:31:00;;;;;;;;;2.00;1.75;;;;;;;;5079307;27;45149;-69
2023/01/04 00:33:25;;;;;;;;;1.00;1.00;;;;;;;;5079265;28;45304;-70
2023/01/04 00:35:50;;;;;;;;;1.25;1.25;;;;;;;;5074053;27;45366;-69
2023/01/04 00:38:16;;;;;;;;;1.50;1.50;;;;;;;;5071028;28;45435;-70
2023/01/04 00:40:41;;;;;;;;;1.75;1.75;;;;;;;;5079747;28;45426;-69
2023/01/04 00:43:06;;;;;;;;;1.00;1.00;;;;;;;;5069257;27;46117;-69
2023/01/04 00:45:31;;;;;;;;;3.00;2.00;;;;;;;;5075496;28;45348;-69
2023/01/04 00:47:56;;;;;;;;;2.25;2.25;;;;;;;;5076028;28;45621;-70
2023/01/04 00:50:22;;;;;;;;;1.00;1.00;;;;;;;;5079370;27;45395;-69
2023/01/04 00:52:48;;;;;;;;;2.00;2.00;;;;;;;;5079020;28;46509;-70
2023/01/04 00:55:13;;;;;;;;;3.00;1.00;;;;;;;;5079040;28;45541;-70
2023/01/04 00:57:38;;;;;;;;;2.75;2.00;;;;;;;;5079123;28;45295;-70
2023/01/04 01:00:04;;;;;;;;;3.00;0.25;;;;;;;;5079058;28;45393;-70
2023/01/04 01:02:29;;;;;;;;;1.75;1.75;;;;;;;;5078507;28;45686;-70
2023/01/04 01:04:54;;;;;;;;;2.00;2.00;;;;;;;;5078051;28;45297;-69
2023/01/04 01:07:19;;;;;;;;;3.25;1.75;;;;;;;;5063386;28;46208;-70
2023/01/04 01:09:45;;;;;;;;;2.75;2.00;;;;;;;;5058940;28;45461;-71
2023/01/04 01:12:10;;;;;;;;;2.00;0.50;;;;;;;;5058152;28;46442;-70
2023/01/04 01:14:35;;;;;;;;;3.00;1.00;;;;;;;;5058137;28;45450;-69
2023/01/04 01:17:01;;;;;;;;;2.00;2.00;;;;;;;;5058504;28;45341;-69
2023/01/04 01:19:27;;;;;;;;;2.50;1.00;;;;;;;;5058599;28;45277;-69
2023/01/04 01:21:52;;;;;;;;;3.00;2.00;;;;;;;;5057971;28;45440;-69
2023/01/04 01:24:18;;;;;;;;;2.50;1.00;;;;;;;;5066532;27;45430;-69
2023/01/04 01:26:43;;;;;;;;;1.75;1.00;;;;;;;;5078725;28;45423;-69
2023/01/04 01:29:09;;;;;;;;;1.50;1.00;;;;;;;;5078727;28;45433;-69
2023/01/04 01:31:34;;;;;;;;;2.75;1.50;;;;;;;;5078264;28;46574;-69
2023/01/04 01:34:00;;;;;;;;;1.00;1.00;;;;;;;;5078455;27;45412;-69
2023/01/04 01:36:25;;;;;;;;;2.00;2.00;;;;;;;;5078364;28;45385;-70
2023/01/04 01:38:51;;;;;;;;;3.25;1.50;;;;;;;;5077801;27;45568;-70
2023/01/04 01:41:18;;;;;;;;;3.00;1.00;;;;;;;;5061411;27;46345;-70
2023/01/04 01:43:57;;;;;;;;;2.75;1.00;;;;;;;;5058402;27;45506;-70
2023/01/04 01:46:28;;;;;;;;;0.50;0.50;;;;;;;;5066421;28;45521;-69
2023/01/04 01:48:55;;;;;;;;;0.00;0.00;;;;;;;;5078447;28;45491;-70
2023/01/04 01:51:21;;;;;;;;;2.75;1.25;;;;;;;;5069486;28;45613;-70
2023/01/04 01:53:48;;;;;;;;;1.50;1.50;;;;;;;;5078141;28;45379;-69
2023/01/04 01:56:15;;;;;;;;;1.00;1.00;;;;;;;;5078391;28;45410;-70
2023/01/04 01:58:42;;;;;;;;;2.00;0.75;;;;;;;;5078316;27;45276;-70
2023/01/04 02:01:08;;;;;;;;;2.25;0.75;;;;;;;;5077814;27;46611;-70
2023/01/04 02:03:38;;;;;;;;;1.50;1.50;;;;;;;;5077995;28;45463;-70
2023/01/04 02:06:05;;;;;;;;;3.25;2.00;;;;;;;;5076142;27;45490;-70
2023/01/04 02:08:31;;;;;;;;;1.00;1.00;;;;;;;;5077382;27;45419;-70
2023/01/04 02:10:56;;;;;;;;;5.00;2.00;;;;;;;;5074248;28;45772;-70
2023/01/04 02:14:25;;;;;;;;;1.00;1.00;;;;;;;;5077683;28;45190;-70
2023/01/04 02:16:17;;;;;;;;;2.00;2.00;;;;;;;;5077493;28;45340;-70
2023/01/04 02:18:49;;;;;;;;;2.50;2.00;;;;;;;;5078056;28;45239;-70
2023/01/04 02:21:20;;;;;;;;;1.00;1.00;;;;;;;;5077561;28;46448;-69
2023/01/04 02:24:05;;;;;;;;;1.25;1.25;;;;;;;;5077631;28;45352;-69
2023/01/04 02:26:42;;;;;;;;;1.25;1.00;;;;;;;;5075066;27;45463;-69
2023/01/04 02:29:10;;;;;;;;;0.75;0.75;;;;;;;;5077834;28;45364;-69
2023/01/04 02:31:39;;;;;;;;;4.50;1.75;;;;;;;;5077197;28;45698;-70
2023/01/04 02:34:23;;;;;;;;;1.00;1.00;;;;;;;;5076727;28;45381;-69
2023/01/04 02:36:51;;;;;;;;;0.75;0.75;;;;;;;;5077598;28;45406;-69
2023/01/04 02:39:21;;;;;;;;;1.00;1.00;;;;;;;;5077725;28;45369;-69
2023/01/04 02:41:51;;;;;;;;;1.00;1.00;;;;;;;;5072319;27;47366;-70
2023/01/04 02:47:06;;;;;;;;;4.00;1.00;;;;;;;;5068485;28;45211;-69
2023/01/04 02:52:15;;;;;;;;;1.00;1.00;;;;;;;;5056916;28;45359;-70
2023/01/04 02:54:42;;;;;;;;;2.00;0.25;;;;;;;;5067779;28;45364;-70
2023/01/04 02:57:21;;;;;;;;;0.75;0.75;;;;;;;;5077592;28;45371;-69
2023/01/04 03:00:05;;;;;;;;;2.75;0.75;;;;;;;;5060866;27;45423;-70
2023/01/04 03:06:14;;;;;;;;;0.20;0.20;;;;;;;;5056778;28;45404;-70
2023/01/04 03:08:30;;;;;;;;;1.00;1.00;;;;;;;;5056975;28;45408;-70
2023/01/04 03:11:01;;;;;;;;;1.00;1.00;;;;;;;;5057096;28;45407;-69
2023/01/04 03:13:36;;;;;;;;;1.00;1.00;;;;;;;;5056364;28;45563;-69
2023/01/04 03:16:07;;;;;;;;;0.00;0.00;;;;;;;;5069362;28;45362;-70
2023/01/04 03:18:36;;;;;;;;;1.00;1.00;;;;;;;;5077172;28;45440;-70
2023/01/04 03:21:03;;;;;;;;;2.00;0.25;;;;;;;;5077036;28;45326;-69
2023/01/04 03:37:46;;;;;;;;;0.00;0.00;;;;;;;;5076654;28;45299;-70
2023/01/04 03:49:20;;;;;;;;;0.60;0.60;;;;;;;;5016533;28;45277;-70
2023/01/04 03:51:47;;;;;;;;;0.50;0.50;;;;;;;;5017576;28;45883;-70
2023/01/04 03:54:28;;;;;;;;;0.00;0.00;;;;;;;;5017824;28;45388;-70
2023/01/04 03:56:53;;;;;;;;;0.00;0.00;;;;;;;;5017381;28;46150;-70
2023/01/04 03:59:21;;;;;;;;;1.75;0.00;;;;;;;;5017346;28;45585;-70
2023/01/04 04:01:46;;;;;;;;;0.00;0.00;;;;;;;;5017231;28;45539;-70
2023/01/04 04:09:39;;;;;;;;;0.00;0.00;;;;;;;;5009801;28;45406;-71
2023/01/04 04:12:04;;;;;;;;;0.00;0.00;;;;;;;;5017292;28;45457;-71
2023/01/04 04:14:30;;;;;;;;;2.00;0.00;;;;;;;;4998513;28;45615;-70
2023/01/04 04:16:55;;;;;;;;;0.00;0.00;;;;;;;;4997017;28;45360;-70
2023/01/04 04:19:20;;;;;;;;;0.00;0.00;;;;;;;;4997551;28;45887;-70
2023/01/04 04:21:46;;;;;;;;;0.00;0.00;;;;;;;;4997311;28;45468;-71
2023/01/04 04:24:19;;;;;;;;;0.00;0.00;;;;;;;;5019272;28;45414;-70
2023/01/04 04:26:44;;;;;;;;;0.00;0.00;;;;;;;;5059391;28;46508;-71
2023/01/04 04:29:09;;;;;;;;;0.50;0.50;;;;;;;;5059011;28;45448;-70
2023/01/04 04:31:34;;;;;;;;;0.00;0.00;;;;;;;;5059736;27;45423;-70
2023/01/04 04:34:00;;;;;;;;;0.00;0.00;;;;;;;;5059502;28;45441;-70
2023/01/04 04:36:25;;;;;;;;;0.00;0.00;;;;;;;;5069117;28;47330;-70
2023/01/04 04:38:50;;;;;;;;;0.50;0.00;;;;;;;;5079459;28;45372;-70
2023/01/04 04:43:59;;;;;;;;;0.00;0.00;;;;;;;;5079515;28;45355;-72
2023/01/04 04:46:25;;;;;;;;;0.00;0.00;;;;;;;;5077859;28;46643;-70
2023/01/04 04:48:50;;;;;;;;;1.00;1.00;;;;;;;;5061987;28;45497;-71
2023/01/04 04:51:15;;;;;;;;;0.00;0.00;;;;;;;;5058847;28;45485;-70
2023/01/04 04:53:40;;;;;;;;;1.50;0.00;;;;;;;;5059117;28;45422;-70
2023/01/04 04:56:06;;;;;;;;;0.00;0.00;;;;;;;;5058060;28;45381;-70
2023/01/04 04:58:32;;;;;;;;;3.00;0.00;;;;;;;;5058798;28;45398;-70
2023/01/04 05:00:57;;;;;;;;;0.00;0.00;;;;;;;;5058886;28;45373;-70
2023/01/04 05:03:22;;;;;;;;;0.00;0.00;;;;;;;;5064094;28;45523;-70
2023/01/04 05:05:47;;;;;;;;;0.00;0.00;;;;;;;;5078925;28;47025;-71
2023/01/04 05:08:12;;;;;;;;;0.00;0.00;;;;;;;;5078755;28;45320;-71
2023/01/04 05:10:38;;;;;;;;;2.00;0.00;;;;;;;;5079143;28;45442;-70
2023/01/04 05:13:05;;;;;;;;;0.00;0.00;;;;;;;;5078916;28;46319;-71
2023/01/04 05:15:38;;;;;;;;;0.00;0.00;;;;;;;;5078614;28;46400;-71
2023/01/04 05:18:04;;;;;;;;;0.00;0.00;;;;;;;;5078638;28;45577;-71
2023/01/04 05:20:29;;;;;;;;;0.00;0.00;;;;;;;;5074910;27;45575;-71
2023/01/04 05:22:55;;;;;;;;;0.00;0.00;;;;;;;;5078912;28;45374;-72
2023/01/04 05:25:20;;;;;;;;;0.00;0.00;;;;;;;;5078633;28;45682;-71
2023/01/04 05:27:45;;;;;;;;;0.00;0.00;;;;;;;;5078623;28;45402;-72
2023/01/04 05:32:56;;;;;;;;;0.00;0.00;;;;;;;;5078832;28;45443;-70
2023/01/04 05:35:21;;;;;;;;;1.50;0.00;;;;;;;;5078213;27;45545;-70
2023/01/04 05:37:47;;;;;;;;;0.00;0.00;;;;;;;;5078490;28;45371;-71
2023/01/04 05:40:12;;;;;;;;;0.00;0.00;;;;;;;;5075361;27;45691;-71
2023/01/04 05:42:37;;;;;;;;;1.00;0.00;;;;;;;;5078519;28;45597;-72
2023/01/04 05:45:03;;;;;;;;;0.00;0.00;;;;;;;;5078425;28;46172;-70
2023/01/04 05:47:28;;;;;;;;;0.00;0.00;;;;;;;;5077982;27;45446;-72
2023/01/04 05:49:53;;;;;;;;;0.00;0.00;;;;;;;;5078496;28;45325;-71
2023/01/04 05:52:18;;;;;;;;;0.00;0.00;;;;;;;;5078388;28;45344;-71
2023/01/04 05:54:44;;;;;;;;;0.00;0.00;;;;;;;;5075048;27;46008;-68
2023/01/04 05:57:09;;;;;;;;;0.00;0.00;;;;;;;;5067386;28;45422;-68
2023/01/04 05:59:35;;;;;;;;;0.00;0.00;;;;;;;;5078229;28;45391;-67
2023/01/04 06:02:00;;;;;;;;;0.00;0.00;;;;;;;;5076982;28;45351;-68
2023/01/04 06:04:25;;;;;;;;;1.00;0.00;;;;;;;;5077531;28;46470;-67
2023/01/04 06:06:50;;;;;;;;;0.25;0.00;;;;;;;;5077636;28;45229;-68
2023/01/04 06:09:16;;;;;;;;;0.00;0.00;;;;;;;;5076992;28;45446;-68
2023/01/04 06:11:41;;;;;;;;;4.50;1.00;;;;;;;;5078111;28;45347;-68
2023/01/04 06:14:06;;;;;;;;;0.00;0.00;;;;;;;;5077752;28;45673;-70
2023/01/04 06:16:31;;;;;;;;;1.25;0.00;;;;;;;;5075348;27;45641;-71
2023/01/04 06:18:56;;;;;;;;;20.33;20.33;;;;;;;;5077789;28;45331;-71
2023/01/04 06:21:24;;;;;;;;;0.00;0.00;;;;;;;;5078219;28;45344;-70
2023/01/04 06:23:49;;;;;;;;;0.00;0.00;;;;;;;;5077570;28;46355;-70
2023/01/04 06:26:14;;;;;;;;;0.00;0.00;;;;;;;;5077690;27;45193;-70
2023/01/04 06:28:39;;;;;;;;;8.50;8.25;;;;;;;;5077442;28;45490;-70
2023/01/04 06:31:06;;;;;;;;;0.00;0.00;;;;;;;;5077789;28;45432;-70
2023/01/04 06:33:31;;;;;;;;;1.50;0.75;;;;;;;;5074540;27;46567;-70
2023/01/04 06:35:56;;;;;;;;;0.00;0.00;;;;;;;;5077562;27;45261;-70
2023/01/04 06:38:21;;;;;;;;;1.00;1.00;;;;;;;;5077653;28;45352;-70
2023/01/04 06:40:47;;;;;;;;;0.00;0.00;;;;;;;;5077584;28;45737;-71
2023/01/04 06:43:12;;;;;;;;;1.00;1.00;;;;;;;;5077104;28;45463;-71
2023/01/04 06:45:37;;;;;;;;;0.00;0.00;;;;;;;;5063133;28;45490;-70
2023/01/04 06:48:02;;;;;;;;;0.00;0.00;;;;;;;;5065761;27;45492;-70
2023/01/04 06:50:28;;;;;;;;;0.00;0.00;;;;;;;;5060856;27;45432;-71
2023/01/04 06:52:53;;;;;;;;;0.00;0.00;;;;;;;;5056862;28;45448;-71
2023/01/04 06:55:18;;;;;;;;;0.00;0.00;;;;;;;;5057228;28;45474;-70
2023/01/04 06:57:43;;;;;;;;;0.00;0.00;;;;;;;;5057055;28;45459;-70
2023/01/04 07:00:09;;;;;;;;;0.00;0.00;;;;;;;;5057438;28;45303;-71
2023/01/04 07:02:34;;;;;;;;;0.00;0.00;;;;;;;;5075402;27;45484;-70
2023/01/04 07:05:00;;;;;;;;;2.75;1.50;;;;;;;;5077182;27;45265;-71
2023/01/04 07:07:25;;;;;;;;;0.75;0.00;;;;;;;;5071029;28;45406;-70
2023/01/04 07:09:50;;;;;;;;;1.00;1.00;;;;;;;;5074827;28;45458;-70
2023/01/04 07:12:15;;;;;;;;;1.00;1.00;;;;;;;;5076194;27;46491;-71
2023/01/04 07:14:41;;;;;;;;;0.50;0.00;;;;;;;;5076247;28;45390;-71
2023/01/04 07:17:06;;;;;;;;;2.00;0.00;;;;;;;;5076614;27;45395;-70
2023/01/04 07:19:31;;;;;;;;;0.25;0.00;;;;;;;;5075662;27;45690;-70
2023/01/04 07:21:57;;;;;;;;;2.00;1.00;;;;;;;;5075518;28;47174;-71
2023/01/04 07:24:23;;;;;;;;;0.00;0.00;;;;;;;;5079619;27;45539;-70
2023/01/04 07:26:48;;;;;;;;;0.00;0.00;;;;;;;;5079776;28;45328;-70
2023/01/04 07:29:14;;;;;;;;;1.00;1.00;;;;;;;;5078878;27;45193;-70
2023/01/04 07:31:39;;;;;;;;;1.00;1.00;;;;;;;;5077494;27;45482;-72
2023/01/04 07:34:05;;;;;;;;;0.25;0.25;;;;;;;;5079040;28;45482;-71
2023/01/04 07:36:30;;;;;;;;;0.75;0.75;;;;;;;;5062068;28;45258;-71
2023/01/04 07:38:57;;;;;;;;;5.25;4.25;;;;;;;;5079504;28;45407;-70
2023/01/04 07:41:22;;;;;;;;;1.00;1.00;;;;;;;;5079531;28;46390;-70
2023/01/04 07:43:48;;;;;;;;;0.00;0.00;;;;;;;;5079755;27;45510;-71
2023/01/04 07:46:13;;;;;;;;;0.00;0.00;;;;;;;;5080399;28;45538;-71
2023/01/04 07:48:38;;;;;;;;;4.25;4.25;;;;;;;;5080184;28;45398;-71
2023/01/04 07:51:03;;;;;;;;;1.00;1.00;;;;;;;;5080145;28;46381;-71
2023/01/04 07:53:30;;;;;;;;;0.00;0.00;;;;;;;;5080010;27;45376;-71
2023/01/04 07:55:56;;;;;;;;;0.00;0.00;;;;;;;;5080276;28;45319;-71
2023/01/04 07:58:22;;;;;;;;;0.00;0.00;;;;;;;;5080273;28;45447;-71
2023/01/04 08:00:47;;;;;;;;;1.00;1.00;;;;;;;;5079803;28;45458;-71
2023/01/04 08:03:12;;;;;;;;;1.00;1.00;;;;;;;;5079859;28;45475;-71
2023/01/04 08:05:37;;;;;;;;;0.75;0.75;;;;;;;;5079900;28;45380;-71
2023/01/04 08:08:02;;;;;;;;;2.00;0.00;;;;;;;;5080238;28;45465;-71
2023/01/04 08:10:28;;;;;;;;;1.00;1.00;;;;;;;;5079710;28;45441;-71
2023/01/04 08:12:53;;;;;;;;;1.00;0.00;;;;;;;;5079731;28;45349;-70
2023/01/04 08:15:19;;;;;;;;;3.00;1.00;;;;;;;;5079902;28;45427;-72
2023/01/04 08:17:44;;;;;;;;;1.00;1.00;;;;;;;;5079981;28;45351;-70
2023/01/04 08:20:09;;;;;;;;;0.50;0.50;;;;;;;;5079574;27;45586;-70
2023/01/04 08:22:34;;;;;;;;;1.00;1.00;;;;;;;;5079581;28;45304;-70
2023/01/04 08:25:00;;;;;;;;;1.50;1.00;;;;;;;;5079538;28;45401;-71
2023/01/04 08:27:25;;;;;;;;;2.00;0.75;;;;;;;;5079958;28;45427;-71
2023/01/04 08:29:50;;;;;;;;;2.00;0.50;;;;;;;;5079312;28;46292;-72
2023/01/04 08:32:15;;;;;;;;;2.00;0.25;;;;;;;;5078513;28;45287;-70
2023/01/04 08:34:40;;;;;;;;;0.75;0.75;;;;;;;;5079519;28;45261;-71
2023/01/04 08:37:06;;;;;;;;;2.25;1.00;;;;;;;;5079825;28;45420;-70
2023/01/04 08:39:34;;;;;;;;;3.25;1.00;;;;;;;;5079183;28;47047;-71
2023/01/04 08:42:00;;;;;;;;;0.75;0.75;;;;;;;;5079298;28;45393;-70
2023/01/04 08:44:25;;;;;;;;;1.00;1.00;;;;;;;;5079532;28;45471;-71
2023/01/04 08:46:51;;;;;;;;;0.00;0.00;;;;;;;;5079473;28;45451;-70
2023/01/04 08:49:17;;;;;;;;;1.00;1.00;;;;;;;;5078982;28;45328;-72
2023/01/04 08:51:42;;;;;;;;;0.75;0.00;;;;;;;;5079144;27;45429;-70
2023/01/04 08:54:08;;;;;;;;;1.00;1.00;;;;;;;;5079248;28;45419;-71
2023/01/04 08:56:33;;;;;;;;;3.00;3.00;;;;;;;;5079521;28;45414;-71
2023/01/04 08:58:59;;;;;;;;;2.00;1.00;;;;;;;;5078787;27;46682;-71
2023/01/04 09:01:24;;;;;;;;;2.50;2.50;;;;;;;;5078967;28;45272;-71
2023/01/04 09:03:49;;;;;;;;;2.00;2.00;;;;;;;;5079224;27;45278;-71
2023/01/04 09:06:15;;;;;;;;;1.75;1.75;;;;;;;;5079040;28;45436;-70
2023/01/04 09:08:41;;;;;;;;;1.00;1.00;;;;;;;;5078916;28;45396;-71
2023/01/04 09:11:09;;;;;;;;;0.00;0.00;;;;;;;;5078773;27;45376;-70
2023/01/04 09:13:35;;;;;;;;;1.25;1.25;;;;;;;;5078814;28;45520;-70
2023/01/04 09:16:00;;;;;;;;;2.00;2.00;;;;;;;;5079154;27;45264;-71
2023/01/04 09:18:26;;;;;;;;;2.00;1.00;;;;;;;;5078632;28;45481;-71
2023/01/04 09:20:51;;;;;;;;;1.00;1.00;;;;;;;;5078765;28;45444;-70
2023/01/04 09:23:16;;;;;;;;;3.25;3.25;;;;;;;;5078855;28;45415;-70
2023/01/04 09:25:41;;;;;;;;;1.25;1.00;;;;;;;;5078859;28;45458;-71
2023/01/04 09:28:06;;;;;;;;;1.00;1.00;;;;;;;;5078488;28;45471;-71
2023/01/04 09:30:32;;;;;;;;;1.00;1.00;;;;;;;;5078366;28;45498;-71
2023/01/04 09:32:57;;;;;;;;;1.00;1.00;;;;;;;;5078645;28;45322;-71
2023/01/04 09:35:22;;;;;;;;;5.00;3.75;;;;;;;;5078552;28;45429;-70
2023/01/04 09:37:47;;;;;;;;;1.00;1.00;;;;;;;;5078359;28;46647;-70
2023/01/04 09:40:21;;;;;;;;;2.00;1.00;;;;;;;;5078311;28;45435;-70
2023/01/04 09:42:47;;;;;;;;;3.25;3.25;;;;;;;;5078263;28;45365;-70
2023/01/04 09:45:25;;;;;;;;;4.00;1.00;;;;;;;;5078753;28;45363;-69
2023/01/04 09:47:54;;;;;;;;;0.75;0.75;;;;;;;;5078245;28;46508;-70
2023/01/04 09:50:37;;;;;;;;;8.25;8.25;;;;;;;;5077952;27;45486;-70
2023/01/04 09:53:29;;;;;;;;;1.00;1.00;;;;;;;;5078091;28;45449;-70
2023/01/04 09:56:00;;;;;;;;;3.50;2.00;;;;;;;;5075168;28;45384;-70
2023/01/04 09:58:30;;;;;;;;;1.00;1.00;;;;;;;;5077938;28;46472;-70
2023/01/04 10:01:03;;;;;;;;;25.67;25.00;;;;;;;;5078049;28;45327;-70
2023/01/04 10:03:33;;;;;;;;;2.00;1.00;;;;;;;;5078116;28;45439;-70
2023/01/04 10:05:59;;;;;;;;;6.00;1.00;;;;;;;;5077980;27;45477;-70
2023/01/04 10:08:24;;;;;;;;;1.00;1.00;;;;;;;;5077958;28;45396;-70
2023/01/04 10:10:59;;;;;;;;;1.00;1.00;;;;;;;;5077744;28;45384;-70
2023/01/04 10:13:30;;;;;;;;;2.25;1.00;;;;;;;;5077793;28;45396;-70
2023/01/04 10:16:01;;;;;;;;;4.00;2.25;;;;;;;;5078201;28;45312;-69
2023/01/04 10:18:35;;;;;;;;;0.00;0.00;;;;;;;;5077527;28;46269;-70
2023/01/04 10:21:19;;;;;;;;;0.00;0.00;;;;;;;;5077546;28;45321;-70
2023/01/04 10:23:51;;;;;;;;;1.00;1.00;;;;;;;;5077777;28;45505;-70
2023/01/04 10:26:22;;;;;;;;;0.00;0.00;;;;;;;;5077949;28;45241;-71
2023/01/04 10:29:03;;;;;;;;;0.00;0.00;;;;;;;;5077708;28;46772;-70
2023/01/04 10:31:30;;;;;;;;;1.00;1.00;;;;;;;;5077364;28;45254;-71
2023/01/04 10:33:58;;;;;;;;;1.25;0.25;;;;;;;;5077700;28;45343;-70
2023/01/04 10:36:27;;;;;;;;;0.00;0.00;;;;;;;;5077899;28;45373;-70
2023/01/04 10:38:57;;;;;;;;;1.00;0.00;;;;;;;;5077379;28;46788;-70
2023/01/04 10:41:25;;;;;;;;;0.00;0.00;;;;;;;;5077377;28;45317;-70
2023/01/04 10:43:54;;;;;;;;;0.00;0.00;;;;;;;;5077587;28;45438;-70
2023/01/04 10:46:39;;;;;;;;;1.00;1.00;;;;;;;;5077699;28;45402;-70
2023/01/04 10:49:04;;;;;;;;;0.25;0.25;;;;;;;;5076778;28;47324;-70
2023/01/04 10:51:37;;;;;;;;;2.50;0.50;;;;;;;;5077214;28;45339;-70
2023/01/04 10:54:09;;;;;;;;;0.25;0.25;;;;;;;;5077032;28;45475;-69
2023/01/04 10:56:44;;;;;;;;;1.00;1.00;;;;;;;;5077469;28;45318;-70
2023/01/04 10:59:21;;;;;;;;;1.00;1.00;;;;;;;;5077009;28;47478;-70
2023/01/04 11:01:50;;;;;;;;;0.00;0.00;;;;;;;;5077345;28;45361;-70
2023/01/04 11:04:42;;;;;;;;;0.00;0.00;;;;;;;;5077372;28;45328;-70
2023/01/04 11:07:12;;;;;;;;;0.00;0.00;;;;;;;;5074024;28;45301;-71
2023/01/04 11:09:43;;;;;;;;;2.00;2.00;;;;;;;;5077033;28;46664;-71
2023/01/04 11:12:10;;;;;;;;;0.00;0.00;;;;;;;;5077009;28;45432;-71
2023/01/04 11:14:35;;;;;;;;;0.00;0.00;;;;;;;;5077381;28;45440;-70
2023/01/04 11:17:04;;;;;;;;;0.00;0.00;;;;;;;;5077309;28;45376;-70
2023/01/04 11:19:29;;;;;;;;;0.00;0.00;;;;;;;;5076954;28;47347;-70
2023/01/04 11:21:58;;;;;;;;;0.00;0.00;;;;;;;;5076833;28;45709;-70
2023/01/04 11:24:25;;;;;;;;;0.00;0.00;;;;;;;;5076583;28;45387;-70
2023/01/04 11:26:51;;;;;;;;;12.25;12.25;;;;;;;;5077053;28;45482;-70
2023/01/04 11:29:35;;;;;;;;;1.00;1.00;;;;;;;;5076362;28;46493;-70
2023/01/04 11:32:05;;;;;;;;;0.25;0.00;;;;;;;;5076589;28;45348;-69
2023/01/04 11:34:47;;;;;;;;;0.00;0.00;;;;;;;;5077000;28;45372;-70
2023/01/04 11:37:26;;;;;;;;;1.00;1.00;;;;;;;;5076920;28;45373;-70
2023/01/04 11:40:09;;;;;;;;;0.00;0.00;;;;;;;;5075977;28;47614;-70
2023/01/04 11:42:34;;;;;;;;;0.00;0.00;;;;;;;;5076730;28;45479;-70
2023/01/04 11:44:59;;;;;;;;;0.00;0.00;;;;;;;;5076751;28;45402;-71
2023/01/04 11:47:27;;;;;;;;;0.00;0.00;;;;;;;;5077151;28;45384;-70
2023/01/04 11:49:52;;;;;;;;;0.00;0.00;;;;;;;;5076500;28;46529;-70
2023/01/04 11:52:26;;;;;;;;;1.50;0.00;;;;;;;;5076256;27;45261;-70
2023/01/04 11:54:52;;;;;;;;;2.50;2.50;;;;;;;;5076294;28;45350;-67
2023/01/04 11:57:18;;;;;;;;;0.00;0.00;;;;;;;;5076807;28;45419;-68
2023/01/04 11:59:44;;;;;;;;;0.00;0.00;;;;;;;;5076416;28;45377;-69
2023/01/04 12:02:22;;;;;;;;;1.00;0.00;;;;;;;;5076170;28;45490;-70
2023/01/04 12:04:48;;;;;;;;;0.25;0.25;;;;;;;;5076252;28;45470;-71
2023/01/04 12:07:34;;;;;;;;;0.00;0.00;;;;;;;;5077851;28;45397;-71
2023/01/04 12:10:00;;;;;;;;;0.00;0.00;;;;;;;;5079419;27;47260;-71
2023/01/04 12:12:30;;;;;;;;;0.80;0.00;;;;;;;;5079664;28;45383;-70
2023/01/04 12:14:58;;;;;;;;;0.00;0.00;;;;;;;;5079910;27;45404;-71
2023/01/04 12:17:23;;;;;;;;;3.75;2.00;;;;;;;;5079940;28;45375;-71
2023/01/04 12:19:52;;;;;;;;;0.00;0.00;;;;;;;;5079587;27;45408;-71
2023/01/04 12:22:44;;;;;;;;;0.00;0.00;;;;;;;;5079288;28;45340;-71
2023/01/04 12:25:31;;;;;;;;;0.25;0.25;;;;;;;;5076498;27;45611;-71
2023/01/04 12:27:57;;;;;;;;;0.00;0.00;;;;;;;;5079581;28;45333;-71
2023/01/04 12:30:37;;;;;;;;;1.50;0.25;;;;;;;;5079299;28;46487;-71
2023/01/04 12:33:21;;;;;;;;;0.00;0.00;;;;;;;;5079463;28;45423;-71
2023/01/04 12:36:00;;;;;;;;;2.00;0.50;;;;;;;;5079437;28;45286;-71
2023/01/04 12:38:44;;;;;;;;;3.00;2.00;;;;;;;;5079351;28;45498;-71
2023/01/04 12:41:09;;;;;;;;;1.50;1.00;;;;;;;;5078340;27;45583;-72
2023/01/04 12:43:38;;;;;;;;;2.00;2.00;;;;;;;;5079205;28;45356;-71
2023/01/04 12:49:24;;;;;;;;;0.00;0.00;;;;;;;;5079285;28;45321;-71
2023/01/04 12:52:10;;;;;;;;;0.25;0.25;;;;;;;;5077829;28;45774;-71
2023/01/04 12:54:45;;;;;;;;;1.00;0.00;;;;;;;;5077845;27;45462;-71
2023/01/04 12:57:11;;;;;;;;;0.25;0.00;;;;;;;;5077239;28;45455;-72
2023/01/04 12:59:37;;;;;;;;;1.75;1.75;;;;;;;;5078761;28;45377;-70
2023/01/04 13:02:15;;;;;;;;;1.00;1.00;;;;;;;;5077560;28;46120;-71
2023/01/04 13:04:40;;;;;;;;;2.00;1.00;;;;;;;;5078484;28;45468;-71
2023/01/04 13:07:13;;;;;;;;;1.00;1.00;;;;;;;;5078496;28;45359;-71
2023/01/04 13:09:40;;;;;;;;;1.00;1.00;;;;;;;;5079076;27;45442;-71
2023/01/04 13:12:24;;;;;;;;;0.00;0.00;;;;;;;;5078392;28;46503;-71
2023/01/04 13:14:53;;;;;;;;;1.50;0.00;;;;;;;;5078240;28;45369;-71
2023/01/04 13:17:20;;;;;;;;;0.00;0.00;;;;;;;;5077802;28;45716;-71
2023/01/04 13:19:46;;;;;;;;;0.00;0.00;;;;;;;;5078654;28;45378;-71
2023/01/04 13:22:27;;;;;;;;;0.00;0.00;;;;;;;;5077921;27;46848;-71
2023/01/04 13:24:55;;;;;;;;;0.00;0.00;;;;;;;;5078301;27;45382;-70
2023/01/04 13:27:21;;;;;;;;;0.00;0.00;;;;;;;;5078572;28;45950;-71
2023/01/04 13:29:47;;;;;;;;;0.00;0.00;;;;;;;;5078293;28;45383;-72
2023/01/04 13:32:12;;;;;;;;;0.00;0.00;;;;;;;;5078178;28;47366;-72
2023/01/04 13:34:38;;;;;;;;;0.00;0.00;;;;;;;;5077993;28;45372;-71
2023/01/04 13:37:13;;;;;;;;;3.00;0.00;;;;;;;;5077704;27;45391;-71
2023/01/04 13:39:40;;;;;;;;;0.00;0.00;;;;;;;;5078285;28;45396;-71
2023/01/04 13:42:10;;;;;;;;;0.00;0.00;;;;;;;;5078184;28;45448;-71
2023/01/04 13:44:47;;;;;;;;;0.00;0.00;;;;;;;;5077011;28;45622;-71
2023/01/04 13:47:12;;;;;;;;;0.00;0.00;;;;;;;;5077988;27;45455;-71
2023/01/04 13:49:39;;;;;;;;;2.25;1.00;;;;;;;;5078312;28;45423;-71
2023/01/04 13:52:19;;;;;;;;;6.00;2.75;;;;;;;;5077435;28;47604;-71
2023/01/04 13:54:45;;;;;;;;;2.00;1.00;;;;;;;;5077539;28;45270;-71
2023/01/04 13:57:10;;;;;;;;;1.00;1.00;;;;;;;;5077946;28;45154;-70
2023/01/04 13:59:36;;;;;;;;;5.75;1.00;;;;;;;;5077959;28;45407;-71
2023/01/04 14:02:01;;;;;;;;;3.00;0.00;;;;;;;;5077693;28;45498;-72
2023/01/04 14:04:28;;;;;;;;;0.75;0.75;;;;;;;;5077520;28;45313;-71
2023/01/04 14:06:56;;;;;;;;;2.00;1.00;;;;;;;;5077731;28;45420;-71
2023/01/04 14:09:23;;;;;;;;;2.00;0.75;;;;;;;;5077696;28;45456;-71
2023/01/04 14:11:58;;;;;;;;;5.25;1.50;;;;;;;;5077204;28;45739;-71
2023/01/04 14:14:39;;;;;;;;;3.75;2.00;;;;;;;;5077477;28;45524;-71
2023/01/04 14:17:06;;;;;;;;;5.00;1.25;;;;;;;;5077526;27;45483;-71
2023/01/04 14:19:51;;;;;;;;;3.75;2.75;;;;;;;;5077772;28;45431;-71
2023/01/04 14:22:22;;;;;;;;;3.00;1.25;;;;;;;;5076743;28;46272;-71
2023/01/04 14:24:51;;;;;;;;;4.50;2.25;;;;;;;;5076939;28;45371;-72
2023/01/04 14:27:31;;;;;;;;;3.25;2.50;;;;;;;;5077514;28;45356;-71
2023/01/04 14:29:56;;;;;;;;;3.50;3.50;;;;;;;;5076753;27;45364;-71
2023/01/04 14:32:22;;;;;;;;;3.25;1.75;;;;;;;;5077105;28;46203;-72
2023/01/04 14:34:47;;;;;;;;;9.50;4.75;;;;;;;;5076882;28;45394;-71
2023/01/04 14:37:12;;;;;;;;;3.75;1.50;;;;;;;;5077256;28;45319;-72
2023/01/04 14:39:38;;;;;;;;;5.75;3.75;;;;;;;;5077080;28;45227;-72
2023/01/04 14:42:04;;;;;;;;;5.00;3.00;;;;;;;;5076942;28;46961;-72
2023/01/04 14:44:29;;;;;;;;;7.75;3.75;;;;;;;;5076770;28;45542;-71
2023/01/04 14:46:56;;;;;;;;;5.25;4.50;;;;;;;;5077148;28;45674;-72
2023/01/04 14:49:21;;;;;;;;;5.25;2.75;;;;;;;;5077319;28;45524;-72
2023/01/04 14:51:51;;;;;;;;;9.67;5.33;;;;;;;;5076795;28;46039;-71
2023/01/04 14:54:17;;;;;;;;;4.00;3.50;;;;;;;;5076847;28;45621;-71
2023/01/04 14:56:42;;;;;;;;;5.50;3.00;;;;;;;;5076660;28;45491;-71
2023/01/04 14:59:08;;;;;;;;;10.25;6.00;;;;;;;;5076750;28;45469;-72
2023/01/04 15:01:34;;;;;;;;;8.50;5.75;;;;;;;;5076965;28;45531;-72
2023/01/04 15:04:00;;;;;;;;;5.00;2.50;;;;;;;;5076662;28;45473;-72
2023/01/04 15:06:25;;;;;;;;;4.00;2.75;;;;;;;;5076994;28;45360;-72
2023/01/04 15:08:51;;;;;;;;;8.00;4.00;;;;;;;;5076636;28;45604;-71
2023/01/04 15:11:17;;;;;;;;;10.00;4.25;;;;;;;;5076383;27;45492;-72
2023/01/04 15:13:43;;;;;;;;;8.75;3.75;;;;;;;;5076277;28;45482;-72
2023/01/04 15:16:09;;;;;;;;;10.00;4.00;;;;;;;;5076261;28;45421;-72
2023/01/04 15:18:34;;;;;;;;;8.00;4.00;;;;;;;;5077054;27;45436;-72
2023/01/04 15:21:01;;;;;;;;;6.50;4.50;;;;;;;;5076429;28;46120;-72
2023/01/04 15:23:26;;;;;;;;;4.00;4.00;;;;;;;;5076424;28;45403;-72
2023/01/04 15:25:51;;;;;;;;;6.75;3.50;;;;;;;;5076764;28;45471;-72
2023/01/04 15:28:20;;;;;;;;;5.25;3.75;;;;;;;;5076950;28;45424;-72
2023/01/04 15:30:45;;;;;;;;;12.50;3.00;;;;;;;;5057970;28;47278;-73
2023/01/04 15:33:10;;;;;;;;;8.00;3.50;;;;;;;;5076477;28;45356;-72
2023/01/04 15:35:35;;;;;;;;;7.25;3.25;;;;;;;;5076469;28;45420;-71